createdAt,value
2022-08-28T00:01:27.804Z,13.07
2022-08-28T00:03:54.619Z,8.80
2022-08-28T00:06:22.035Z,8.68
2022-08-28T00:08:48.855Z,12.20
2022-08-28T00:11:17.102Z,11.68
2022-08-28T00:13:44.475Z,6.88
2022-08-28T00:16:11.344Z,9.85
2022-08-28T00:18:38.234Z,13.00
2022-08-28T00:21:06.193Z,12.25
2022-08-28T00:23:42.697Z,12.00
2022-08-28T00:26:11.483Z,8.40
2022-08-28T00:28:39.631Z,9.02
2022-08-28T00:31:09.073Z,12.18
2022-08-28T00:33:36.592Z,7.15
2022-08-28T00:36:03.966Z,8.95
2022-08-28T00:38:30.889Z,9.25
2022-08-28T00:41:01.224Z,9.45
2022-08-28T00:43:36.769Z,10.88
2022-08-28T00:46:12.822Z,8.73
2022-08-28T00:48:40.327Z,8.77
2022-08-28T00:51:09.512Z,9.23
2022-08-28T00:53:36.483Z,10.70
2022-08-28T00:56:10.368Z,10.55
2022-08-28T00:58:44.719Z,11.85
2022-08-28T01:01:13.827Z,8.32
2022-08-28T01:03:43.346Z,9.02
2022-08-28T01:06:13.192Z,10.88
2022-08-28T01:08:43.397Z,9.07
2022-08-28T01:11:15.499Z,11.57
2022-08-28T01:13:45.008Z,11.43
2022-08-28T01:16:14.994Z,10.52
2022-08-28T01:18:46.091Z,9.13
2022-08-28T01:21:20.450Z,11.73
2022-08-28T01:23:54.488Z,11.80
2022-08-28T01:26:24.421Z,12.45
2022-08-28T01:28:52.047Z,8.02
2022-08-28T01:31:20.305Z,12.07
2022-08-28T01:33:47.988Z,11.85
2022-08-28T01:36:16.754Z,10.93
2022-08-28T01:38:48.783Z,11.33
2022-08-28T01:41:17.549Z,11.45
2022-08-28T01:43:44.424Z,6.72
2022-08-28T01:46:11.812Z,6.10
2022-08-28T01:48:41.570Z,9.60
2022-08-28T01:51:09.496Z,10.27
2022-08-28T01:53:36.569Z,10.45
2022-08-28T01:56:07.858Z,10.50
2022-08-28T01:58:38.251Z,12.85
2022-08-28T02:01:09.526Z,9.85
2022-08-28T02:03:36.406Z,14.02
2022-08-28T02:06:03.273Z,7.00
2022-08-28T02:08:30.681Z,10.55
2022-08-28T02:10:57.689Z,8.98
2022-08-28T02:13:25.700Z,7.43
2022-08-28T02:15:54.594Z,8.85
2022-08-28T02:18:21.555Z,12.70
2022-08-28T02:20:48.502Z,7.63
2022-08-28T02:23:16.531Z,11.88
2022-08-28T02:25:43.384Z,10.85
2022-08-28T02:28:10.219Z,10.43
2022-08-28T02:30:40.954Z,12.48
2022-08-28T02:33:09.171Z,12.73
2022-08-28T02:35:36.018Z,10.98
2022-08-28T02:38:03.607Z,12.80
2022-08-28T02:40:30.594Z,8.20
2022-08-28T02:42:57.552Z,10.48
2022-08-28T02:45:24.952Z,8.75
2022-08-28T02:47:53.376Z,10.68
2022-08-28T02:50:21.951Z,12.98
2022-08-28T02:52:49.666Z,10.43
2022-08-28T02:55:18.865Z,10.23
2022-08-28T02:57:46.835Z,14.10
2022-08-28T03:00:18.922Z,13.93
2022-08-28T03:02:46.399Z,11.43
2022-08-28T03:05:16.486Z,7.83
2022-08-28T03:07:44.664Z,9.30
2022-08-28T03:10:11.558Z,16.33
2022-08-28T03:12:39.217Z,8.40
2022-08-28T03:15:07.765Z,11.63
2022-08-28T03:17:35.539Z,9.38
2022-08-28T03:20:04.676Z,9.45
2022-08-28T03:22:31.455Z,8.20
2022-08-28T03:24:59.898Z,8.93
2022-08-28T03:29:53.901Z,6.50
2022-08-28T03:32:20.654Z,9.90
2022-08-28T03:34:48.018Z,14.07
2022-08-28T03:37:14.803Z,8.85
2022-08-28T03:39:41.630Z,9.63
2022-08-28T03:42:10.451Z,10.77
2022-08-28T03:44:40.567Z,5.97
2022-08-28T03:47:07.926Z,10.98
2022-08-28T03:49:35.304Z,8.77
2022-08-28T03:52:02.295Z,9.75
2022-08-28T03:54:29.066Z,11.75
2022-08-28T03:56:56.443Z,8.27
2022-08-28T03:59:26.692Z,13.02
2022-08-28T04:02:00.862Z,9.40
2022-08-28T04:04:27.767Z,13.63
2022-08-28T04:06:54.586Z,13.77
2022-08-28T04:09:22.025Z,10.25
2022-08-28T04:11:48.800Z,9.40
2022-08-28T04:14:15.590Z,9.65
2022-08-28T04:16:44.354Z,9.15
2022-08-28T04:19:11.133Z,9.47
2022-08-28T04:21:37.940Z,7.90
2022-08-28T04:24:09.370Z,10.68
2022-08-28T04:26:36.492Z,9.35
2022-08-28T04:29:04.182Z,7.70
2022-08-28T04:31:32.561Z,10.35
2022-08-28T04:34:02.391Z,7.40
2022-08-28T04:36:30.199Z,13.05
2022-08-28T04:38:57.560Z,9.23
2022-08-28T04:41:24.461Z,13.93
2022-08-28T04:43:52.028Z,9.10
2022-08-28T04:46:19.034Z,13.52
2022-08-28T04:48:45.901Z,11.23
2022-08-28T04:51:14.892Z,8.55
2022-08-28T04:53:42.351Z,8.65
2022-08-28T04:56:11.708Z,8.20
2022-08-28T04:58:40.171Z,12.82
2022-08-28T05:01:10.300Z,7.75
2022-08-28T05:03:37.191Z,12.10
2022-08-28T05:06:05.507Z,15.68
2022-08-28T05:08:33.895Z,8.65
2022-08-28T05:11:10.802Z,9.35
2022-08-28T05:13:38.498Z,11.75
2022-08-28T05:16:06.184Z,11.48
2022-08-28T05:18:33.213Z,11.20
2022-08-28T05:21:00.796Z,12.88
2022-08-28T05:23:28.097Z,18.38
2022-08-28T05:25:56.536Z,12.38
2022-08-28T05:30:51.137Z,9.90
2022-08-28T05:33:18.155Z,11.02
2022-08-28T05:35:46.930Z,14.73
2022-08-28T05:38:15.923Z,10.57
2022-08-28T05:43:13.558Z,11.25
2022-08-28T05:45:40.525Z,8.35
2022-08-28T05:48:07.562Z,15.48
2022-08-28T05:50:37.559Z,10.95
2022-08-28T05:53:04.374Z,14.00
2022-08-28T05:55:31.564Z,6.75
2022-08-28T05:57:58.943Z,8.40
2022-08-28T06:00:27.051Z,13.00
2022-08-28T06:02:53.810Z,9.27
2022-08-28T06:05:21.173Z,11.60
2022-08-28T06:07:47.927Z,8.07
2022-08-28T06:10:14.851Z,8.15
2022-08-28T06:12:42.258Z,9.18
2022-08-28T06:15:09.990Z,7.32
2022-08-28T06:17:38.073Z,5.43
2022-08-28T06:20:06.365Z,6.15
2022-08-28T06:22:33.176Z,6.55
2022-08-28T06:24:59.946Z,9.07
2022-08-28T06:27:27.319Z,5.85
2022-08-28T06:29:54.092Z,6.78
2022-08-28T06:32:20.898Z,7.88
2022-08-28T06:34:49.752Z,6.47
2022-08-28T06:37:16.519Z,6.65
2022-08-28T06:39:43.283Z,9.27
2022-08-28T06:42:10.731Z,9.63
2022-08-28T06:44:37.525Z,6.55
2022-08-28T06:47:04.600Z,7.28
2022-08-28T06:49:31.984Z,5.60
2022-08-28T06:54:07.984Z,7.07
2022-08-28T06:56:35.695Z,4.45
2022-08-28T06:59:04.856Z,6.25
2022-08-28T07:01:33.495Z,7.18
2022-08-28T07:04:03.293Z,6.60
2022-08-28T07:06:33.122Z,11.70
2022-08-28T07:09:00.889Z,6.07
2022-08-28T07:11:30.960Z,8.15
2022-08-28T07:13:58.560Z,7.03
2022-08-28T07:16:28.501Z,6.32
2022-08-28T07:18:59.107Z,5.10
2022-08-28T07:21:26.898Z,3.33
2022-08-28T07:23:55.318Z,5.22
2022-08-28T07:26:24.288Z,7.32
2022-08-28T07:28:53.582Z,9.05
2022-08-28T07:31:36.765Z,6.60
2022-08-28T07:34:04.206Z,6.72
2022-08-28T07:36:46.346Z,4.15
2022-08-28T07:39:15.416Z,6.10
2022-08-28T07:41:44.016Z,4.20
2022-08-28T07:46:41.341Z,5.82
2022-08-28T07:49:08.936Z,5.78
2022-08-28T07:51:36.815Z,7.25
2022-08-28T07:54:05.025Z,3.20
2022-08-28T07:56:35.052Z,5.82
2022-08-28T07:59:02.054Z,8.32
2022-08-28T08:04:04.477Z,5.50
2022-08-28T08:06:33.230Z,6.35
2022-08-28T08:09:06.000Z,7.88
2022-08-28T08:11:34.039Z,6.72
2022-08-28T08:14:03.774Z,4.70
2022-08-28T08:16:34.574Z,5.13
2022-08-28T08:19:02.655Z,4.50
2022-08-28T08:21:30.407Z,3.35
2022-08-28T08:23:57.926Z,5.82
2022-08-28T08:26:27.039Z,4.00
2022-08-28T08:28:53.878Z,4.50
2022-08-28T08:31:25.319Z,5.28
2022-08-28T08:33:56.372Z,3.42
2022-08-28T08:36:25.154Z,5.38
2022-08-28T08:39:02.574Z,5.05
2022-08-28T08:41:41.786Z,8.48
2022-08-28T08:44:21.539Z,3.92
2022-08-28T08:46:57.837Z,7.88
2022-08-28T08:49:32.791Z,4.45
2022-08-28T08:52:19.526Z,3.58
2022-08-28T08:55:02.712Z,6.38
2022-08-28T08:57:32.110Z,4.10
2022-08-28T08:59:59.936Z,3.92
2022-08-28T09:02:32.620Z,4.70
2022-08-28T09:05:06.204Z,5.60
2022-08-28T09:07:38.170Z,3.53
2022-08-28T09:10:12.272Z,4.53
2022-08-28T09:12:51.907Z,7.40
2022-08-28T09:15:30.309Z,5.57
2022-08-28T09:18:08.025Z,4.03
2022-08-28T09:20:40.667Z,5.93
2022-08-28T09:23:12.530Z,4.30
2022-08-28T09:25:52.251Z,3.17
2022-08-28T09:28:22.437Z,4.45
2022-08-28T09:31:05.815Z,4.32
2022-08-28T09:33:37.702Z,7.28
2022-08-28T09:36:33.141Z,4.13
2022-08-28T09:39:09.076Z,5.63
2022-08-28T09:41:40.273Z,3.72
2022-08-28T09:44:07.135Z,2.40
2022-08-28T09:46:35.005Z,5.18
2022-08-28T09:49:09.098Z,4.35
2022-08-28T09:51:37.503Z,3.38
2022-08-28T09:54:14.485Z,3.20
2022-08-28T09:56:44.607Z,5.47
2022-08-28T09:59:13.886Z,3.03
2022-08-28T10:04:41.256Z,6.32
2022-08-28T10:07:15.169Z,2.90
2022-08-28T10:09:51.439Z,3.38
2022-08-28T10:12:33.002Z,2.95
2022-08-28T10:15:11.028Z,3.20
2022-08-28T10:17:53.882Z,2.92
2022-08-28T10:20:31.712Z,4.13
2022-08-28T10:23:08.295Z,3.70
2022-08-28T10:25:46.169Z,2.05
2022-08-28T10:28:27.036Z,4.10
2022-08-28T10:31:07.553Z,3.13
2022-08-28T10:33:57.538Z,4.97
2022-08-28T10:36:34.663Z,4.10
2022-08-28T10:39:17.682Z,3.78
2022-08-28T10:41:49.286Z,3.28
2022-08-28T10:44:25.420Z,2.72
2022-08-28T10:46:57.734Z,4.63
2022-08-28T10:49:29.083Z,2.30
2022-08-28T10:52:02.878Z,4.78
2022-08-28T10:54:38.836Z,3.55
2022-08-28T10:57:15.006Z,3.75
2022-08-28T10:59:45.405Z,2.65
2022-08-28T11:02:14.090Z,2.83
2022-08-28T11:04:41.123Z,5.05
2022-08-28T11:07:11.485Z,2.47
2022-08-28T11:09:43.752Z,1.83
2022-08-28T11:12:35.715Z,2.53
2022-08-28T11:15:37.426Z,2.50
2022-08-28T11:18:36.247Z,2.92
2022-08-28T11:21:11.951Z,4.07
2022-08-28T11:23:43.482Z,4.60
2022-08-28T11:26:29.965Z,3.72
2022-08-28T11:29:00.085Z,2.78
2022-08-28T11:31:37.351Z,3.35
2022-08-28T11:34:05.531Z,3.90
2022-08-28T11:36:58.586Z,3.08
2022-08-28T11:39:28.557Z,2.85
2022-08-28T11:42:36.071Z,5.97
2022-08-28T11:45:03.374Z,2.80
2022-08-28T11:47:53.004Z,2.28
2022-08-28T11:50:27.113Z,2.08
2022-08-28T11:53:39.988Z,3.58
2022-08-28T11:56:36.283Z,2.67
2022-08-28T11:59:35.127Z,2.95
2022-08-28T12:02:50.703Z,3.38
2022-08-28T12:05:44.282Z,2.38
2022-08-28T12:08:56.417Z,6.03
2022-08-28T12:12:03.516Z,1.52
2022-08-28T12:14:59.083Z,3.80
2022-08-28T12:17:39.973Z,2.40
2022-08-28T12:20:13.062Z,2.65
2022-08-28T12:22:47.017Z,2.40
2022-08-28T12:25:24.692Z,5.63
2022-08-28T12:27:52.638Z,2.67
2022-08-28T12:30:30.797Z,3.83
2022-08-28T12:33:11.408Z,4.38
2022-08-28T12:35:44.232Z,2.50
2022-08-28T12:38:19.038Z,2.85
2022-08-28T12:40:49.382Z,1.88
2022-08-28T12:43:31.318Z,4.05
2022-08-28T12:46:03.103Z,5.53
2022-08-28T12:48:33.010Z,2.92
2022-08-28T12:51:03.811Z,4.97
2022-08-28T12:53:41.799Z,2.33
2022-08-28T12:56:15.411Z,4.28
2022-08-28T12:58:44.015Z,2.83
2022-08-28T13:01:15.031Z,3.13
2022-08-28T13:03:47.838Z,2.97
2022-08-28T13:06:21.997Z,6.22
2022-08-28T13:08:49.680Z,5.30
2022-08-28T13:11:21.256Z,2.95
2022-08-28T13:13:50.922Z,2.75
2022-08-28T13:16:38.754Z,2.67
2022-08-28T13:21:55.913Z,2.35
2022-08-28T13:24:36.283Z,2.03
2022-08-28T13:27:08.146Z,3.63
2022-08-28T13:29:37.231Z,1.38
2022-08-28T13:32:08.547Z,1.80
2022-08-28T13:34:37.610Z,2.15
2022-08-28T13:37:14.788Z,2.90
2022-08-28T13:39:48.011Z,3.58
2022-08-28T13:42:16.686Z,4.88
2022-08-28T13:47:17.185Z,1.63
2022-08-28T13:49:46.805Z,3.15
2022-08-28T13:52:14.476Z,3.30
2022-08-28T13:54:45.234Z,2.75
2022-08-28T13:57:12.873Z,3.85
2022-08-28T13:59:40.931Z,4.35
2022-08-28T14:02:11.710Z,3.05
2022-08-28T14:04:39.935Z,2.47
2022-08-28T14:07:09.819Z,1.77
2022-08-28T14:09:36.908Z,3.13
2022-08-28T14:12:05.829Z,3.35
2022-08-28T14:17:00.057Z,2.63
2022-08-28T14:19:27.620Z,3.03
2022-08-28T14:21:57.521Z,2.10
2022-08-28T14:24:27.425Z,1.10
2022-08-28T14:26:54.967Z,5.65
2022-08-28T14:29:22.108Z,4.00
2022-08-28T14:31:49.054Z,4.78
2022-08-28T14:34:19.019Z,3.45
2022-08-28T14:36:47.854Z,4.47
2022-08-28T14:39:16.759Z,2.45
2022-08-28T14:41:45.315Z,3.60
2022-08-28T14:44:12.627Z,2.45
2022-08-28T14:46:41.997Z,5.90
2022-08-28T14:49:12.470Z,7.07
2022-08-28T14:51:41.488Z,12.73
2022-08-28T14:54:13.263Z,5.28
2022-08-28T14:56:43.272Z,8.23
2022-08-28T14:59:17.547Z,6.65
2022-08-28T15:01:48.067Z,7.93
2022-08-28T15:04:18.226Z,4.50
2022-08-28T15:06:45.751Z,6.53
2022-08-28T15:09:14.806Z,5.40
2022-08-28T15:11:44.823Z,5.63
2022-08-28T15:14:12.058Z,5.78
2022-08-28T15:16:41.175Z,5.15
2022-08-28T15:19:09.717Z,2.95
2022-08-28T15:21:38.482Z,3.28
2022-08-28T15:24:07.423Z,2.78
2022-08-28T15:26:34.983Z,6.07
2022-08-28T15:29:04.018Z,2.25
2022-08-28T15:31:32.660Z,2.78
2022-08-28T15:34:03.624Z,2.05
2022-08-28T15:36:32.632Z,4.20
2022-08-28T15:39:00.872Z,3.63
2022-08-28T15:41:27.950Z,3.80
2022-08-28T15:43:56.946Z,3.40
2022-08-28T15:46:26.368Z,1.42
2022-08-28T15:48:54.438Z,3.95
2022-08-28T15:51:25.712Z,2.83
2022-08-28T15:53:53.574Z,5.93
2022-08-28T15:56:20.418Z,3.08
2022-08-28T15:58:47.296Z,3.50
2022-08-28T16:01:17.120Z,3.85
2022-08-28T16:03:45.385Z,2.33
2022-08-28T16:06:14.810Z,2.58
2022-08-28T16:08:42.983Z,4.75
2022-08-28T16:11:10.427Z,3.25
2022-08-28T16:13:37.227Z,3.83
2022-08-28T16:16:04.780Z,7.03
2022-08-28T16:18:31.619Z,2.00
2022-08-28T16:21:04.593Z,2.35
2022-08-28T16:23:33.317Z,6.13
2022-08-28T16:26:00.855Z,6.50
2022-08-28T16:28:27.767Z,5.93
2022-08-28T16:30:55.195Z,2.83
2022-08-28T16:33:22.236Z,3.65
2022-08-28T16:35:54.903Z,2.00
2022-08-28T16:38:25.503Z,3.33
2022-08-28T16:40:52.602Z,1.67
2022-08-28T16:43:19.395Z,3.38
2022-08-28T16:45:47.395Z,2.88
2022-08-28T16:48:15.458Z,3.15
2022-08-28T16:50:44.264Z,2.45
2022-08-28T16:53:11.827Z,3.13
2022-08-28T16:55:40.000Z,3.97
2022-08-28T16:58:09.556Z,2.78
2022-08-28T17:00:52.374Z,2.08
2022-08-28T17:03:22.043Z,3.05
2022-08-28T17:05:54.876Z,5.40
2022-08-28T17:08:22.095Z,3.38
2022-08-28T17:10:53.102Z,11.88
2022-08-28T17:13:20.481Z,6.93
2022-08-28T17:15:47.298Z,4.60
2022-08-28T17:18:16.643Z,10.18
2022-08-28T17:20:44.031Z,3.55
2022-08-28T17:23:13.907Z,2.65
2022-08-28T17:25:40.848Z,4.30
2022-08-28T17:28:09.572Z,3.03
2022-08-28T17:30:36.374Z,2.90
2022-08-28T17:33:03.287Z,2.95
2022-08-28T17:35:30.922Z,3.53
2022-08-28T17:38:07.269Z,3.15
2022-08-28T17:40:34.758Z,3.33
2022-08-28T17:43:01.570Z,23.23
2022-08-28T17:45:29.938Z,8.07
2022-08-28T17:47:57.397Z,5.95
2022-08-28T17:50:24.211Z,2.35
2022-08-28T17:52:51.593Z,4.38
2022-08-28T17:55:19.503Z,7.80
2022-08-28T17:57:46.283Z,5.13
2022-08-28T18:00:17.322Z,3.97
2022-08-28T18:02:49.478Z,2.88
2022-08-28T18:05:16.514Z,6.15
2022-08-28T18:07:43.300Z,3.60
2022-08-28T18:10:11.007Z,3.55
2022-08-28T18:12:38.240Z,3.38
2022-08-28T18:15:07.151Z,1.92
2022-08-28T18:17:35.963Z,2.25
2022-08-28T18:20:04.730Z,3.05
2022-08-28T18:22:34.984Z,3.25
2022-08-28T18:25:01.761Z,1.95
2022-08-28T18:27:28.537Z,3.65
2022-08-28T18:29:55.931Z,3.67
2022-08-28T18:32:22.847Z,1.75
2022-08-28T18:34:49.744Z,3.35
2022-08-28T18:37:20.769Z,2.80
2022-08-28T18:39:51.730Z,3.03
2022-08-28T18:42:24.872Z,3.83
2022-08-28T18:44:51.682Z,3.40
2022-08-28T18:47:18.458Z,3.95
2022-08-28T18:49:47.288Z,5.47
2022-08-28T18:52:14.331Z,3.28
2022-08-28T18:54:42.482Z,2.22
2022-08-28T18:57:11.695Z,4.60
2022-08-28T18:59:38.779Z,5.20
2022-08-28T19:02:05.729Z,4.25
2022-08-28T19:04:33.239Z,5.35
2022-08-28T19:07:00.006Z,4.75
2022-08-28T19:09:32.294Z,2.70
2022-08-28T19:12:02.515Z,5.00
2022-08-28T19:14:29.290Z,3.22
2022-08-28T19:16:56.315Z,4.85
2022-08-28T19:19:24.150Z,6.32
2022-08-28T19:21:51.666Z,3.90
2022-08-28T19:24:18.510Z,3.38
2022-08-28T19:26:47.544Z,2.40
2022-08-28T19:29:16.043Z,6.93
2022-08-28T19:31:43.688Z,3.75
2022-08-28T19:34:11.760Z,1.60
2022-08-28T19:36:39.280Z,3.60
2022-08-28T19:39:06.798Z,3.83
2022-08-28T19:41:34.553Z,2.90
2022-08-28T19:44:01.523Z,4.63
2022-08-28T19:46:29.914Z,3.60
2022-08-28T19:48:57.447Z,2.65
2022-08-28T19:51:26.661Z,4.53
2022-08-28T19:53:58.255Z,5.07
2022-08-28T19:56:28.196Z,1.85
2022-08-28T19:58:56.372Z,3.28
2022-08-28T20:01:23.385Z,2.83
2022-08-28T20:03:53.892Z,5.05
2022-08-28T20:06:20.675Z,2.97
2022-08-28T20:08:47.543Z,5.75
2022-08-28T20:11:16.373Z,7.88
2022-08-28T20:13:43.267Z,4.60
2022-08-28T20:16:10.065Z,3.17
2022-08-28T20:18:40.003Z,2.78
2022-08-28T20:21:09.677Z,3.65
2022-08-28T20:23:36.687Z,3.25
2022-08-28T20:26:04.623Z,4.10
2022-08-28T20:28:31.640Z,3.40
2022-08-28T20:31:06.974Z,4.22
2022-08-28T20:33:36.627Z,5.75
2022-08-28T20:36:05.216Z,4.43
2022-08-28T20:38:33.507Z,8.52
2022-08-28T20:43:31.971Z,3.53
2022-08-28T20:46:01.462Z,8.55
2022-08-28T20:48:33.316Z,4.00
2022-08-28T20:51:02.853Z,3.25
2022-08-28T20:53:37.473Z,6.07
2022-08-28T20:56:09.467Z,5.72
2022-08-28T20:58:36.648Z,4.97
2022-08-28T21:01:03.912Z,5.43
2022-08-28T21:03:31.307Z,3.45
2022-08-28T21:05:58.068Z,2.67
2022-08-28T21:08:27.862Z,3.33
2022-08-28T21:10:55.244Z,5.32
2022-08-28T21:13:26.230Z,3.60
2022-08-28T21:15:54.124Z,5.00
2022-08-28T21:18:21.495Z,4.32
2022-08-28T21:20:50.643Z,2.97
2022-08-28T21:23:17.441Z,2.95
2022-08-28T21:25:49.510Z,4.30
2022-08-28T21:28:16.543Z,4.28
2022-08-28T21:30:44.916Z,6.05
2022-08-28T21:33:12.447Z,3.40
2022-08-28T21:35:40.186Z,2.53
2022-08-28T21:38:13.343Z,3.63
2022-08-28T21:40:41.365Z,3.38
2022-08-28T21:43:11.032Z,4.13
2022-08-28T21:45:37.916Z,4.97
2022-08-28T21:48:08.588Z,3.42
2022-08-28T21:50:35.451Z,3.90
2022-08-28T21:53:02.227Z,4.63
2022-08-28T21:55:31.630Z,7.20
2022-08-28T21:57:58.368Z,4.57
2022-08-28T22:00:25.303Z,2.67
2022-08-28T22:02:52.758Z,6.57
2022-08-28T22:05:21.325Z,3.50
2022-08-28T22:07:50.904Z,4.40
2022-08-28T22:10:18.290Z,4.88
2022-08-28T22:12:45.167Z,3.50
2022-08-28T22:15:11.955Z,6.35
2022-08-28T22:17:39.479Z,5.63
2022-08-28T22:20:10.140Z,4.10
2022-08-28T22:22:38.261Z,6.13
2022-08-28T22:25:06.895Z,6.07
2022-08-28T22:27:33.670Z,4.93
2022-08-28T22:30:00.685Z,3.58
2022-08-28T22:32:28.169Z,6.95
2022-08-28T22:37:37.849Z,4.18
2022-08-28T22:42:41.715Z,6.75
2022-08-28T22:47:37.087Z,4.22
2022-08-28T22:50:05.571Z,5.80
2022-08-28T22:52:35.136Z,6.47
2022-08-28T22:55:03.391Z,4.57
2022-08-28T22:57:34.336Z,6.85
2022-08-28T23:00:01.250Z,4.72
2022-08-28T23:02:28.038Z,6.00
2022-08-28T23:04:59.615Z,6.75
2022-08-28T23:07:29.518Z,3.05
2022-08-28T23:09:58.834Z,3.22
2022-08-28T23:12:29.836Z,3.25
2022-08-28T23:15:00.735Z,4.07
2022-08-28T23:17:27.891Z,6.28
2022-08-28T23:19:55.382Z,6.53
2022-08-28T23:22:22.788Z,5.22
2022-08-28T23:24:55.651Z,4.07
2022-08-28T23:27:38.226Z,5.25
2022-08-28T23:30:11.033Z,5.07
2022-08-28T23:32:38.432Z,5.60
2022-08-28T23:35:07.968Z,5.60
2022-08-28T23:37:36.422Z,3.83
2022-08-28T23:42:32.135Z,3.53
2022-08-28T23:44:58.952Z,6.93
2022-08-28T23:47:27.826Z,6.78
2022-08-28T23:49:54.600Z,3.58
2022-08-28T23:52:21.403Z,1.92
2022-08-28T23:54:49.615Z,5.82
2022-08-28T23:57:16.454Z,6.68
2022-08-28T23:59:43.967Z,7.60
